sensor_id;sensor_type;location;lat;lon;timestamp;pressure;altitude;pressure_sealevel;temperature;humidity
52927;BME280;40783;49.710;8.842;2023-09-30T00:02:10;99871.22;;;16.68;100.00
52927;BME280;40783;49.710;8.842;2023-09-30T00:04:39;99861.75;;;16.72;100.00
52927;BME280;40783;49.710;8.842;2023-09-30T00:07:04;99871.22;;;16.68;100.00
52927;BME280;40783;49.710;8.842;2023-09-30T00:09:30;99866.59;;;16.77;100.00
52927;BME280;40783;49.710;8.842;2023-09-30T00:11:57;99874.22;;;16.73;100.00
52927;BME280;40783;49.710;8.842;2023-09-30T00:14:25;99873.38;;;16.73;100.00
52927;BME280;40783;49.710;8.842;2023-09-30T00:16:56;99870.50;;;16.74;100.00
52927;BME280;40783;49.710;8.842;2023-09-30T00:19:27;99877.22;;;16.79;100.00
52927;BME280;40783;49.710;8.842;2023-09-30T00:21:52;99880.09;;;16.77;100.00
52927;BME280;40783;49.710;8.842;2023-09-30T00:24:17;99890.25;;;16.75;100.00
52927;BME280;40783;49.710;8.842;2023-09-30T00:26:45;99882.28;;;16.82;100.00
52927;BME280;40783;49.710;8.842;2023-09-30T00:29:11;99885.63;;;16.84;100.00
52927;BME280;40783;49.710;8.842;2023-09-30T00:31:40;99900.16;;;16.83;100.00
52927;BME280;40783;49.710;8.842;2023-09-30T00:34:05;99900.53;;;16.80;100.00
52927;BME280;40783;49.710;8.842;2023-09-30T00:36:31;99889.41;;;16.74;100.00
52927;BME280;40783;49.710;8.842;2023-09-30T00:38:56;99903.63;;;16.68;100.00
52927;BME280;40783;49.710;8.842;2023-09-30T00:41:22;99900.63;;;16.63;100.00
52927;BME280;40783;49.710;8.842;2023-09-30T00:43:49;99900.16;;;16.59;100.00
52927;BME280;40783;49.710;8.842;2023-09-30T00:46:25;99901.00;;;16.60;100.00
52927;BME280;40783;49.710;8.842;2023-09-30T00:48:52;99913.00;;;16.57;100.00
52927;BME280;40783;49.710;8.842;2023-09-30T00:51:22;99918.88;;;16.61;100.00
52927;BME280;40783;49.710;8.842;2023-09-30T00:53:48;99925.94;;;16.62;100.00
52927;BME280;40783;49.710;8.842;2023-09-30T00:56:14;99926.84;;;16.54;100.00
52927;BME280;40783;49.710;8.842;2023-09-30T00:58:39;99933.75;;;16.57;100.00
52927;BME280;40783;49.710;8.842;2023-09-30T01:01:07;99922.13;;;16.56;100.00
52927;BME280;40783;49.710;8.842;2023-09-30T01:03:34;99922.94;;;16.57;100.00
52927;BME280;40783;49.710;8.842;2023-09-30T01:05:59;99921.63;;;16.53;100.00
52927;BME280;40783;49.710;8.842;2023-09-30T01:08:27;99924.50;;;16.51;100.00
52927;BME280;40783;49.710;8.842;2023-09-30T01:10:53;99930.25;;;16.48;100.00
52927;BME280;40783;49.710;8.842;2023-09-30T01:13:18;99929.41;;;16.47;100.00
52927;BME280;40783;49.710;8.842;2023-09-30T01:15:43;99918.25;;;16.51;100.00
52927;BME280;40783;49.710;8.842;2023-09-30T01:18:08;99916.56;;;16.50;100.00
52927;BME280;40783;49.710;8.842;2023-09-30T01:20:33;99921.16;;;16.49;100.00
52927;BME280;40783;49.710;8.842;2023-09-30T01:23:01;99921.97;;;16.50;100.00
52927;BME280;40783;49.710;8.842;2023-09-30T01:25:30;99917.59;;;16.49;100.00
52927;BME280;40783;49.710;8.842;2023-09-30T01:27:55;99915.25;;;16.45;100.00
52927;BME280;40783;49.710;8.842;2023-09-30T01:30:25;99923.78;;;16.34;100.00
52927;BME280;40783;49.710;8.842;2023-09-30T01:32:50;99924.59;;;16.35;100.00
52927;BME280;40783;49.710;8.842;2023-09-30T01:35:15;99927.59;;;16.40;100.00
52927;BME280;40783;49.710;8.842;2023-09-30T01:37:43;99930.16;;;16.41;100.00
52927;BME280;40783;49.710;8.842;2023-09-30T01:40:08;99934.88;;;16.39;100.00
52927;BME280;40783;49.710;8.842;2023-09-30T01:42:36;99928.09;;;16.43;100.00
52927;BME280;40783;49.710;8.842;2023-09-30T01:45:01;99931.44;;;16.45;100.00
52927;BME280;40783;49.710;8.842;2023-09-30T01:47:29;99933.13;;;16.46;100.00
52927;BME280;40783;49.710;8.842;2023-09-30T01:49:54;99935.81;;;16.46;100.00
52927;BME280;40783;49.710;8.842;2023-09-30T01:52:20;99935.16;;;16.44;100.00
52927;BME280;40783;49.710;8.842;2023-09-30T01:54:45;99942.34;;;16.29;100.00
52927;BME280;40783;49.710;8.842;2023-09-30T01:57:10;99939.19;;;16.17;100.00
52927;BME280;40783;49.710;8.842;2023-09-30T01:59:38;99937.34;;;16.17;100.00
52927;BME280;40783;49.710;8.842;2023-09-30T02:02:04;99945.78;;;16.14;100.00
52927;BME280;40783;49.710;8.842;2023-09-30T02:04:29;99945.44;;;16.17;100.00
52927;BME280;40783;49.710;8.842;2023-09-30T02:06:56;99946.75;;;16.22;100.00
52927;BME280;40783;49.710;8.842;2023-09-30T02:09:22;99934.28;;;16.21;100.00
52927;BME280;40783;49.710;8.842;2023-09-30T02:11:47;99930.91;;;16.19;100.00
52927;BME280;40783;49.710;8.842;2023-09-30T02:14:12;99929.88;;;16.28;100.00
52927;BME280;40783;49.710;8.842;2023-09-30T02:16:38;99927.84;;;16.30;100.00
52927;BME280;40783;49.710;8.842;2023-09-30T02:19:03;99921.94;;;16.26;100.00
52927;BME280;40783;49.710;8.842;2023-09-30T02:21:28;99927.22;;;16.20;100.00
52927;BME280;40783;49.710;8.842;2023-09-30T02:23:56;99926.56;;;16.09;100.00
52927;BME280;40783;49.710;8.842;2023-09-30T02:26:21;99933.38;;;15.97;100.00
52927;BME280;40783;49.710;8.842;2023-09-30T02:28:51;99938.38;;;16.08;100.00
52927;BME280;40783;49.710;8.842;2023-09-30T02:31:16;99937.69;;;16.14;100.00
52927;BME280;40783;49.710;8.842;2023-09-30T02:33:43;99936.97;;;16.21;100.00
52927;BME280;40783;49.710;8.842;2023-09-30T02:36:09;99943.53;;;16.26;100.00
52927;BME280;40783;49.710;8.842;2023-09-30T02:38:37;99947.94;;;16.19;100.00
52927;BME280;40783;49.710;8.842;2023-09-30T02:41:02;99950.59;;;16.27;100.00
52927;BME280;40783;49.710;8.842;2023-09-30T02:43:28;99949.44;;;16.30;100.00
52927;BME280;40783;49.710;8.842;2023-09-30T02:45:53;99953.81;;;16.31;100.00
52927;BME280;40783;49.710;8.842;2023-09-30T02:48:18;99946.88;;;16.28;100.00
52927;BME280;40783;49.710;8.842;2023-09-30T02:50:43;99955.19;;;16.27;100.00
52927;BME280;40783;49.710;8.842;2023-09-30T02:53:12;99962.97;;;16.22;100.00
52927;BME280;40783;49.710;8.842;2023-09-30T02:55:38;99959.59;;;16.20;100.00
52927;BME280;40783;49.710;8.842;2023-09-30T02:58:03;99961.63;;;16.17;100.00
52927;BME280;40783;49.710;8.842;2023-09-30T03:00:28;99961.75;;;16.24;100.00
52927;BME280;40783;49.710;8.842;2023-09-30T03:02:57;99962.97;;;16.22;100.00
52927;BME280;40783;49.710;8.842;2023-09-30T03:05:23;99967.38;;;16.14;100.00
52927;BME280;40783;49.710;8.842;2023-09-30T03:07:48;99983.56;;;16.14;100.00
52927;BME280;40783;49.710;8.842;2023-09-30T03:10:17;99981.19;;;16.20;100.00
52927;BME280;40783;49.710;8.842;2023-09-30T03:12:51;99982.56;;;16.07;100.00
52927;BME280;40783;49.710;8.842;2023-09-30T03:15:16;99977.50;;;16.04;100.00
52927;BME280;40783;49.710;8.842;2023-09-30T03:17:42;99978.50;;;16.11;100.00
52927;BME280;40783;49.710;8.842;2023-09-30T03:20:07;99980.19;;;16.12;100.00
52927;BME280;40783;49.710;8.842;2023-09-30T03:22:36;99980.53;;;16.09;100.00
52927;BME280;40783;49.710;8.842;2023-09-30T03:25:01;99980.53;;;16.09;100.00
52927;BME280;40783;49.710;8.842;2023-09-30T03:27:26;99965.69;;;16.13;100.00
52927;BME280;40783;49.710;8.842;2023-09-30T03:29:52;99961.66;;;16.09;100.00
52927;BME280;40783;49.710;8.842;2023-09-30T03:32:17;99959.66;;;16.03;100.00
52927;BME280;40783;49.710;8.842;2023-09-30T03:34:42;99947.16;;;16.02;100.00
52927;BME280;40783;49.710;8.842;2023-09-30T03:37:11;99934.34;;;16.04;100.00
52927;BME280;40783;49.710;8.842;2023-09-30T03:39:36;99933.38;;;15.97;100.00
52927;BME280;40783;49.710;8.842;2023-09-30T03:42:01;99946.19;;;15.95;100.00
52927;BME280;40783;49.710;8.842;2023-09-30T03:44:28;99949.06;;;15.85;100.00
52927;BME280;40783;49.710;8.842;2023-09-30T03:46:53;99970.50;;;15.86;100.00
52927;BME280;40783;49.710;8.842;2023-09-30T03:49:18;99981.91;;;15.97;100.00
52927;BME280;40783;49.710;8.842;2023-09-30T03:51:47;99971.47;;;15.94;100.00
52927;BME280;40783;49.710;8.842;2023-09-30T03:54:12;99973.16;;;15.95;100.00
52927;BME280;40783;49.710;8.842;2023-09-30T03:56:37;99985.16;;;15.92;100.00
52927;BME280;40783;49.710;8.842;2023-09-30T03:59:08;99996.28;;;15.89;100.00
52927;BME280;40783;49.710;8.842;2023-09-30T04:01:34;99992.41;;;15.83;100.00
52927;BME280;40783;49.710;8.842;2023-09-30T04:03:59;100003.19;;;15.83;100.00
52927;BME280;40783;49.710;8.842;2023-09-30T04:06:24;99990.72;;;15.82;100.00
52927;BME280;40783;49.710;8.842;2023-09-30T04:08:50;99977.72;;;15.78;100.00
52927;BME280;40783;49.710;8.842;2023-09-30T04:11:15;99979.41;;;15.79;100.00
52927;BME280;40783;49.710;8.842;2023-09-30T04:13:46;99985.31;;;15.82;100.00
52927;BME280;40783;49.710;8.842;2023-09-30T04:16:11;99987.34;;;15.80;100.00
52927;BME280;40783;49.710;8.842;2023-09-30T04:18:36;99981.28;;;15.78;100.00
52927;BME280;40783;49.710;8.842;2023-09-30T04:21:03;99993.78;;;15.87;100.00
52927;BME280;40783;49.710;8.842;2023-09-30T04:23:28;99990.38;;;15.85;100.00
52927;BME280;40783;49.710;8.842;2023-09-30T04:25:54;99986.69;;;15.86;100.00
52927;BME280;40783;49.710;8.842;2023-09-30T04:28:19;99984.97;;;15.85;100.00
52927;BME280;40783;49.710;8.842;2023-09-30T04:30:47;99986.34;;;15.90;100.00
52927;BME280;40783;49.710;8.842;2023-09-30T04:33:17;99982.59;;;15.91;100.00
52927;BME280;40783;49.710;8.842;2023-09-30T04:35:43;99990.06;;;15.89;100.00
52927;BME280;40783;49.710;8.842;2023-09-30T04:38:09;99988.00;;;15.91;100.00
52927;BME280;40783;49.710;8.842;2023-09-30T04:40:35;99984.97;;;15.94;100.00
52927;BME280;40783;49.710;8.842;2023-09-30T04:43:04;99993.88;;;15.86;100.00
52927;BME280;40783;49.710;8.842;2023-09-30T04:45:30;99995.09;;;15.83;100.00
52927;BME280;40783;49.710;8.842;2023-09-30T04:47:58;100017.00;;;15.72;100.00
52927;BME280;40783;49.710;8.842;2023-09-30T04:50:23;100018.38;;;15.68;100.00
52927;BME280;40783;49.710;8.842;2023-09-30T04:52:49;100017.03;;;15.64;100.00
52927;BME280;40783;49.710;8.842;2023-09-30T04:55:15;100004.56;;;15.54;100.00
52927;BME280;40783;49.710;8.842;2023-09-30T04:57:44;100008.59;;;15.58;100.00
52927;BME280;40783;49.710;8.842;2023-09-30T05:00:13;100009.59;;;15.57;100.00
52927;BME280;40783;49.710;8.842;2023-09-30T05:02:39;100000.34;;;15.52;100.00
52927;BME280;40783;49.710;8.842;2023-09-30T05:05:07;100000.19;;;15.45;100.00
52927;BME280;40783;49.710;8.842;2023-09-30T05:07:33;100007.94;;;15.23;100.00
52927;BME280;40783;49.710;8.842;2023-09-30T05:09:58;100012.97;;;15.10;100.00
52927;BME280;40783;49.710;8.842;2023-09-30T05:12:26;100002.19;;;15.10;100.00
52927;BME280;40783;49.710;8.842;2023-09-30T05:14:52;100011.28;;;15.09;100.00
52927;BME280;40783;49.710;8.842;2023-09-30T05:17:17;100016.69;;;15.09;100.00
52927;BME280;40783;49.710;8.842;2023-09-30T05:19:45;100020.03;;;15.11;100.00
52927;BME280;40783;49.710;8.842;2023-09-30T05:22:10;100018.03;;;15.13;100.00
52927;BME280;40783;49.710;8.842;2023-09-30T05:24:35;100025.13;;;15.22;100.00
52927;BME280;40783;49.710;8.842;2023-09-30T05:27:01;100023.78;;;15.26;100.00
52927;BME280;40783;49.710;8.842;2023-09-30T05:29:29;100037.94;;;15.28;100.00
52927;BME280;40783;49.710;8.842;2023-09-30T05:31:54;100038.25;;;15.17;100.00
52927;BME280;40783;49.710;8.842;2023-09-30T05:34:19;100022.41;;;15.22;100.00
52927;BME280;40783;49.710;8.842;2023-09-30T05:36:44;100038.94;;;15.27;100.00
52927;BME280;40783;49.710;8.842;2023-09-30T05:39:12;100037.72;;;15.22;100.00
52927;BME280;40783;49.710;8.842;2023-09-30T05:41:38;100034.56;;;15.26;100.00
52927;BME280;40783;49.710;8.842;2023-09-30T05:44:05;100035.06;;;15.30;100.00
52927;BME280;40783;49.710;8.842;2023-09-30T05:46:31;100041.63;;;15.27;100.00
52927;BME280;40783;49.710;8.842;2023-09-30T05:48:56;100029.81;;;15.20;100.00
52927;BME280;40783;49.710;8.842;2023-09-30T05:51:21;100033.88;;;15.16;100.00
52927;BME280;40783;49.710;8.842;2023-09-30T05:53:49;100040.28;;;15.23;100.00
52927;BME280;40783;49.710;8.842;2023-09-30T05:56:15;100035.91;;;15.31;100.00
52927;BME280;40783;49.710;8.842;2023-09-30T05:58:41;100032.50;;;15.37;100.00
52927;BME280;40783;49.710;8.842;2023-09-30T06:01:12;100032.88;;;15.25;100.00
52927;BME280;40783;49.710;8.842;2023-09-30T06:03:43;100043.31;;;15.28;100.00
52927;BME280;40783;49.710;8.842;2023-09-30T06:06:12;100044.00;;;15.31;100.00
52927;BME280;40783;49.710;8.842;2023-09-30T06:08:37;100055.44;;;15.33;100.00
52927;BME280;40783;49.710;8.842;2023-09-30T06:11:02;100059.97;;;15.32;100.00
52927;BME280;40783;49.710;8.842;2023-09-30T06:13:31;100068.22;;;15.39;100.00
52927;BME280;40783;49.710;8.842;2023-09-30T06:15:57;100065.91;;;15.36;100.00
52927;BME280;40783;49.710;8.842;2023-09-30T06:18:23;100056.09;;;15.26;100.00
52927;BME280;40783;49.710;8.842;2023-09-30T06:20:48;100052.75;;;15.24;100.00
52927;BME280;40783;49.710;8.842;2023-09-30T06:23:16;100069.91;;;15.15;100.00
52927;BME280;40783;49.710;8.842;2023-09-30T06:25:42;100058.47;;;15.21;100.00
52927;BME280;40783;49.710;8.842;2023-09-30T06:28:07;100045.66;;;15.23;100.00
52927;BME280;40783;49.710;8.842;2023-09-30T06:30:33;100055.22;;;15.18;100.00
52927;BME280;40783;49.710;8.842;2023-09-30T06:32:59;100056.94;;;15.27;100.00
52927;BME280;40783;49.710;8.842;2023-09-30T06:35:27;100052.75;;;15.24;100.00
52927;BME280;40783;49.710;8.842;2023-09-30T06:37:57;100059.47;;;15.28;100.00
52927;BME280;40783;49.710;8.842;2023-09-30T06:40:22;100062.19;;;15.28;100.00
52927;BME280;40783;49.710;8.842;2023-09-30T06:42:47;100072.94;;;15.20;100.00
52927;BME280;40783;49.710;8.842;2023-09-30T06:45:13;100083.06;;;15.26;100.00
52927;BME280;40783;49.710;8.842;2023-09-30T06:47:39;100079.69;;;15.33;100.00
52927;BME280;40783;49.710;8.842;2023-09-30T06:50:07;100088.13;;;15.30;100.00
52927;BME280;40783;49.710;8.842;2023-09-30T06:52:33;100083.72;;;15.37;100.00
52927;BME280;40783;49.710;8.842;2023-09-30T06:54:59;100100.94;;;15.36;100.00
52927;BME280;40783;49.710;8.842;2023-09-30T06:57:24;100091.50;;;15.32;100.00
52927;BME280;40783;49.710;8.842;2023-09-30T06:59:52;100086.25;;;15.30;100.00
52927;BME280;40783;49.710;8.842;2023-09-30T07:02:18;100084.72;;;15.19;100.00
52927;BME280;40783;49.710;8.842;2023-09-30T07:04:43;100078.66;;;15.17;100.00
52927;BME280;40783;49.710;8.842;2023-09-30T07:07:08;100076.31;;;15.31;100.00
52927;BME280;40783;49.710;8.842;2023-09-30T07:09:34;100084.41;;;15.31;100.00
52927;BME280;40783;49.710;8.842;2023-09-30T07:12:01;100085.41;;;15.21;100.00
52927;BME280;40783;49.710;8.842;2023-09-30T07:14:26;100097.22;;;15.28;100.00
52927;BME280;40783;49.710;8.842;2023-09-30T07:16:54;100096.53;;;15.35;100.00
52927;BME280;40783;49.710;8.842;2023-09-30T07:19:20;100097.88;;;15.39;100.00
52927;BME280;40783;49.710;8.842;2023-09-30T07:21:45;100099.56;;;15.40;100.00
52927;BME280;40783;49.710;8.842;2023-09-30T07:24:12;100117.63;;;15.48;100.00
52927;BME280;40783;49.710;8.842;2023-09-30T07:26:39;100122.47;;;15.44;100.00
52927;BME280;40783;49.710;8.842;2023-09-30T07:29:07;100105.97;;;15.39;100.00
52927;BME280;40783;49.710;8.842;2023-09-30T07:31:36;100106.63;;;15.41;100.00
52927;BME280;40783;49.710;8.842;2023-09-30T07:34:04;100104.97;;;15.48;100.00
52927;BME280;40783;49.710;8.842;2023-09-30T07:36:31;100096.06;;;15.48;100.00
52927;BME280;40783;49.710;8.842;2023-09-30T07:38:56;100091.81;;;15.45;100.00
52927;BME280;40783;49.710;8.842;2023-09-30T07:41:22;100102.59;;;15.37;100.00
52927;BME280;40783;49.710;8.842;2023-09-30T07:43:47;100113.38;;;15.37;100.00
52927;BME280;40783;49.710;8.842;2023-09-30T07:46:12;100104.78;;;15.33;100.00
52927;BME280;40783;49.710;8.842;2023-09-30T07:48:37;100105.63;;;15.34;100.00
52927;BME280;40783;49.710;8.842;2023-09-30T07:51:04;100098.56;;;15.33;100.00
52927;BME280;40783;49.710;8.842;2023-09-30T07:53:34;100101.94;;;15.35;100.00
52927;BME280;40783;49.710;8.842;2023-09-30T07:56:00;100098.56;;;15.33;100.00
52927;BME280;40783;49.710;8.842;2023-09-30T07:58:27;100105.97;;;15.39;100.00
52927;BME280;40783;49.710;8.842;2023-09-30T08:00:54;100099.88;;;15.37;100.00
52927;BME280;40783;49.710;8.842;2023-09-30T08:03:19;100085.41;;;15.46;100.00
52927;BME280;40783;49.710;8.842;2023-09-30T08:05:47;100092.84;;;15.52;100.00
52927;BME280;40783;49.710;8.842;2023-09-30T08:08:12;100091.16;;;15.51;100.00
52927;BME280;40783;49.710;8.842;2023-09-30T08:10:37;100093.16;;;15.49;100.00
52927;BME280;40783;49.710;8.842;2023-09-30T08:13:05;100093.16;;;15.49;100.00
52927;BME280;40783;49.710;8.842;2023-09-30T08:15:33;100097.56;;;15.58;100.00
52927;BME280;40783;49.710;8.842;2023-09-30T08:17:58;100100.94;;;15.61;100.00
52927;BME280;40783;49.710;8.842;2023-09-30T08:20:23;100100.94;;;15.61;100.00
52927;BME280;40783;49.710;8.842;2023-09-30T08:22:48;100102.28;;;15.65;100.00
52927;BME280;40783;49.710;8.842;2023-09-30T08:25:14;100103.81;;;15.59;100.00
52927;BME280;40783;49.710;8.842;2023-09-30T08:27:39;100098.59;;;15.66;100.00
52927;BME280;40783;49.710;8.842;2023-09-30T08:30:05;100100.09;;;15.68;100.00
52927;BME280;40783;49.710;8.842;2023-09-30T08:32:34;100099.94;;;15.70;100.00
52927;BME280;40783;49.710;8.842;2023-09-30T08:35:02;100104.31;;;15.63;100.00
52927;BME280;40783;49.710;8.842;2023-09-30T08:37:32;100109.38;;;15.66;100.00
52927;BME280;40783;49.710;8.842;2023-09-30T08:39:57;100106.34;;;15.77;100.00
52927;BME280;40783;49.710;8.842;2023-09-30T08:42:23;100113.09;;;15.81;100.00
52927;BME280;40783;49.710;8.842;2023-09-30T08:44:53;100103.66;;;15.85;100.00
52927;BME280;40783;49.710;8.842;2023-09-30T08:47:19;100105.84;;;15.90;100.00
52927;BME280;40783;49.710;8.842;2023-09-30T08:49:47;100110.22;;;15.83;100.00
52927;BME280;40783;49.710;8.842;2023-09-30T08:52:13;100118.81;;;15.95;100.00
52927;BME280;40783;49.710;8.842;2023-09-30T08:54:39;100127.59;;;15.97;100.00
52927;BME280;40783;49.710;8.842;2023-09-30T08:57:05;100129.28;;;15.98;100.00
52927;BME280;40783;49.710;8.842;2023-09-30T08:59:31;100117.31;;;16.00;100.00
52927;BME280;40783;49.710;8.842;2023-09-30T09:01:57;100114.78;;;16.07;100.00
52927;BME280;40783;49.710;8.842;2023-09-30T09:04:25;100109.72;;;15.96;100.00
52927;BME280;40783;49.710;8.842;2023-09-30T09:06:53;100118.81;;;16.11;100.00
52927;BME280;40783;49.710;8.842;2023-09-30T09:09:21;100112.06;;;16.24;100.00
52927;BME280;40783;49.710;8.842;2023-09-30T09:11:47;100128.56;;;16.37;100.00
52927;BME280;40783;49.710;8.842;2023-09-30T09:14:12;100127.50;;;16.46;100.00
52927;BME280;40783;49.710;8.842;2023-09-30T09:16:50;100121.06;;;16.56;100.00
52927;BME280;40783;49.710;8.842;2023-09-30T09:19:15;100113.28;;;16.61;100.00
52927;BME280;40783;49.710;8.842;2023-09-30T09:21:52;100103.13;;;16.71;99.84
52927;BME280;40783;49.710;8.842;2023-09-30T09:24:26;100105.63;;;16.81;100.00
52927;BME280;40783;49.710;8.842;2023-09-30T09:27:03;100103.69;;;16.98;100.00
52927;BME280;40783;49.710;8.842;2023-09-30T09:29:28;100103.00;;;17.04;100.00
52927;BME280;40783;49.710;8.842;2023-09-30T09:31:53;100114.44;;;17.15;100.00
52927;BME280;40783;49.710;8.842;2023-09-30T09:34:33;100127.03;;;17.23;100.00
52927;BME280;40783;49.710;8.842;2023-09-30T09:36:58;100121.84;;;17.21;97.38
52927;BME280;40783;49.710;8.842;2023-09-30T09:39:29;100128.88;;;17.30;98.42
52927;BME280;40783;49.710;8.842;2023-09-30T09:42:00;100113.28;;;17.41;96.91
52927;BME280;40783;49.710;8.842;2023-09-30T09:44:26;100116.63;;;17.43;96.35
52927;BME280;40783;49.710;8.842;2023-09-30T09:46:51;100118.31;;;17.44;92.92
52927;BME280;40783;49.710;8.842;2023-09-30T09:49:20;100125.06;;;17.48;93.27
52927;BME280;40783;49.710;8.842;2023-09-30T09:51:46;100125.78;;;17.42;92.27
52927;BME280;40783;49.710;8.842;2023-09-30T09:54:12;100118.31;;;17.44;92.13
52927;BME280;40783;49.710;8.842;2023-09-30T09:56:37;100131.88;;;17.35;92.55
52927;BME280;40783;49.710;8.842;2023-09-30T09:59:03;100122.41;;;17.40;91.04
52927;BME280;40783;49.710;8.842;2023-09-30T10:01:30;100119.50;;;17.41;89.41
52927;BME280;40783;49.710;8.842;2023-09-30T10:03:55;100130.22;;;17.34;93.33
52927;BME280;40783;49.710;8.842;2023-09-30T10:06:23;100124.44;;;17.38;94.24
52927;BME280;40783;49.710;8.842;2023-09-30T10:08:49;100124.44;;;17.38;90.24
52927;BME280;40783;49.710;8.842;2023-09-30T10:11:19;100106.66;;;17.43;86.92
52927;BME280;40783;49.710;8.842;2023-09-30T10:13:51;100111.81;;;17.53;89.09
52927;BME280;40783;49.710;8.842;2023-09-30T10:19:07;100100.16;;;17.53;89.14
52927;BME280;40783;49.710;8.842;2023-09-30T10:21:33;100090.94;;;17.47;87.36
52927;BME280;40783;49.710;8.842;2023-09-30T10:26:42;100086.09;;;17.57;86.28
52927;BME280;40783;49.710;8.842;2023-09-30T10:29:08;100081.34;;;17.59;88.65
52927;BME280;40783;49.710;8.842;2023-09-30T10:31:34;100083.97;;;17.68;88.05
52927;BME280;40783;49.710;8.842;2023-09-30T10:34:17;100072.44;;;17.74;84.68
52927;BME280;40783;49.710;8.842;2023-09-30T10:36:43;100081.16;;;17.84;87.83
52927;BME280;40783;49.710;8.842;2023-09-30T10:39:11;100069.97;;;17.87;85.42
52927;BME280;40783;49.710;8.842;2023-09-30T10:46:47;100070.25;;;17.92;84.93
52927;BME280;40783;49.710;8.842;2023-09-30T10:51:50;100062.88;;;17.86;82.67
52927;BME280;40783;49.710;8.842;2023-09-30T10:54:17;100069.22;;;17.93;81.88
52927;BME280;40783;49.710;8.842;2023-09-30T10:56:46;100068.84;;;17.97;84.35
52927;BME280;40783;49.710;8.842;2023-09-30T10:59:18;100059.28;;;18.09;80.94
52927;BME280;40783;49.710;8.842;2023-09-30T11:01:43;100064.97;;;18.14;81.70
52927;BME280;40783;49.710;8.842;2023-09-30T11:04:08;100067.75;;;18.06;79.87
52927;BME280;40783;49.710;8.842;2023-09-30T11:06:34;100064.78;;;18.01;77.48
52927;BME280;40783;49.710;8.842;2023-09-30T11:09:01;100069.19;;;18.17;76.38
52927;BME280;40783;49.710;8.842;2023-09-30T11:11:37;100064.97;;;18.14;72.82
52927;BME280;40783;49.710;8.842;2023-09-30T11:14:03;100063.56;;;18.03;75.09
52927;BME280;40783;49.710;8.842;2023-09-30T11:16:40;100072.16;;;18.07;73.68
52927;BME280;40783;49.710;8.842;2023-09-30T11:19:05;100068.78;;;18.05;71.99
52927;BME280;40783;49.710;8.842;2023-09-30T11:21:32;100063.13;;;18.00;70.72
52927;BME280;40783;49.710;8.842;2023-09-30T11:24:00;100074.63;;;17.93;70.41
52927;BME280;40783;49.710;8.842;2023-09-30T11:26:30;100076.09;;;17.81;75.73
52927;BME280;40783;49.710;8.842;2023-09-30T11:29:05;100064.91;;;17.84;71.91
52927;BME280;40783;49.710;8.842;2023-09-30T11:31:30;100079.53;;;17.75;75.29
52927;BME280;40783;49.710;8.842;2023-09-30T11:33:59;100076.00;;;17.74;70.06
52927;BME280;40783;49.710;8.842;2023-09-30T11:36:28;100073.72;;;17.63;72.24
52927;BME280;40783;49.710;8.842;2023-09-30T11:38:58;100076.94;;;17.58;74.33
52927;BME280;40783;49.710;8.842;2023-09-30T11:41:31;100078.63;;;17.59;73.59
52927;BME280;40783;49.710;8.842;2023-09-30T11:43:58;100080.69;;;17.57;73.50
52927;BME280;40783;49.710;8.842;2023-09-30T11:46:25;100073.22;;;17.59;75.00
52927;BME280;40783;49.710;8.842;2023-09-30T11:48:56;100073.09;;;17.76;75.72
52927;BME280;40783;49.710;8.842;2023-09-30T11:51:22;100071.06;;;17.78;72.47
52927;BME280;40783;49.710;8.842;2023-09-30T11:53:51;100069.66;;;17.82;70.97
52927;BME280;40783;49.710;8.842;2023-09-30T11:56:17;100067.19;;;17.95;70.92
52927;BME280;40783;49.710;8.842;2023-09-30T11:58:43;100065.25;;;18.04;67.77
52927;BME280;40783;49.710;8.842;2023-09-30T12:01:11;100059.63;;;18.06;64.85
52927;BME280;40783;49.710;8.842;2023-09-30T12:03:39;100061.75;;;17.95;68.70
52927;BME280;40783;49.710;8.842;2023-09-30T12:06:07;100067.06;;;17.89;69.44
52927;BME280;40783;49.710;8.842;2023-09-30T12:08:32;100069.47;;;17.84;69.87
52927;BME280;40783;49.710;8.842;2023-09-30T12:10:58;100068.44;;;17.85;70.42
52927;BME280;40783;49.710;8.842;2023-09-30T12:13:25;100069.81;;;17.80;69.80
52927;BME280;40783;49.710;8.842;2023-09-30T12:15:53;100068.53;;;18.00;67.64
52927;BME280;40783;49.710;8.842;2023-09-30T12:18:18;100066.44;;;18.02;64.28
52927;BME280;40783;49.710;8.842;2023-09-30T12:20:48;100063.94;;;18.15;65.51
52927;BME280;40783;49.710;8.842;2023-09-30T12:23:14;100056.09;;;18.20;69.46
52927;BME280;40783;49.710;8.842;2023-09-30T12:25:39;100057.31;;;18.03;68.34
52927;BME280;40783;49.710;8.842;2023-09-30T12:28:06;100046.25;;;17.89;69.42
52927;BME280;40783;49.710;8.842;2023-09-30T12:30:32;100044.59;;;17.88;66.02
52927;BME280;40783;49.710;8.842;2023-09-30T12:32:57;100048.69;;;17.84;68.98
52927;BME280;40783;49.710;8.842;2023-09-30T12:35:22;100047.69;;;18.00;62.34
52927;BME280;40783;49.710;8.842;2023-09-30T12:37:50;100039.66;;;18.07;62.35
52927;BME280;40783;49.710;8.842;2023-09-30T12:40:15;100035.84;;;18.16;62.66
52927;BME280;40783;49.710;8.842;2023-09-30T12:42:43;100025.41;;;18.13;61.45
52927;BME280;40783;49.710;8.842;2023-09-30T12:45:12;100018.28;;;18.12;60.52
52927;BME280;40783;49.710;8.842;2023-09-30T12:47:38;100030.44;;;18.16;61.31
52927;BME280;40783;49.710;8.842;2023-09-30T12:50:03;100027.81;;;18.08;60.91
52927;BME280;40783;49.710;8.842;2023-09-30T12:52:29;100019.97;;;18.13;61.99
52927;BME280;40783;49.710;8.842;2023-09-30T12:54:55;100029.78;;;18.14;63.03
52927;BME280;40783;49.710;8.842;2023-09-30T12:57:20;100026.06;;;18.15;61.13